createdAt,value
2019-03-30T00:00:00.483Z,11.40
2019-03-30T00:02:28.608Z,8.63
2019-03-30T00:04:56.713Z,9.43
2019-03-30T00:07:24.815Z,8.37
2019-03-30T00:09:52.952Z,8.90
2019-03-30T00:12:23.011Z,9.83
2019-03-30T00:14:52.973Z,8.60
2019-03-30T00:17:21.168Z,8.43
2019-03-30T00:19:49.307Z,11.27
2019-03-30T00:22:17.416Z,12.07
2019-03-30T00:24:45.547Z,8.60
2019-03-30T00:27:13.648Z,9.07
2019-03-30T00:29:41.786Z,7.90
2019-03-30T00:32:09.890Z,9.03
2019-03-30T00:34:38.026Z,10.23
2019-03-30T00:37:06.404Z,8.80
2019-03-30T00:39:34.534Z,8.83
2019-03-30T00:42:02.637Z,10.70
2019-03-30T00:44:31.133Z,8.67
2019-03-30T00:46:59.240Z,8.50
2019-03-30T00:49:27.369Z,10.17
2019-03-30T00:51:55.572Z,9.17
2019-03-30T00:54:23.710Z,8.10
2019-03-30T00:56:51.820Z,11.83
2019-03-30T00:59:20.279Z,9.80
2019-03-30T01:01:48.544Z,10.97
2019-03-30T01:04:16.647Z,8.47
2019-03-30T01:06:45.096Z,10.27
2019-03-30T01:09:13.283Z,11.13
2019-03-30T01:11:41.403Z,10.63
2019-03-30T01:14:09.537Z,11.77
2019-03-30T01:16:37.738Z,12.67
2019-03-30T01:19:05.839Z,11.97
2019-03-30T01:21:33.966Z,12.27
2019-03-30T01:24:02.088Z,12.40
2019-03-30T01:26:30.299Z,11.67
2019-03-30T01:28:58.416Z,11.10
2019-03-30T01:31:26.564Z,10.83
2019-03-30T01:33:57.654Z,9.90
2019-03-30T01:36:25.829Z,9.70
2019-03-30T01:38:53.961Z,9.73
2019-03-30T01:41:22.067Z,10.30
2019-03-30T01:43:50.207Z,9.97
2019-03-30T01:46:18.770Z,12.10
2019-03-30T01:48:47.176Z,12.93
2019-03-30T01:51:15.391Z,10.57
2019-03-30T01:53:43.531Z,9.20
2019-03-30T01:56:11.650Z,10.47
2019-03-30T01:58:39.873Z,10.90
2019-03-30T02:01:08.047Z,10.13
2019-03-30T02:03:36.266Z,9.93
2019-03-30T02:06:04.636Z,12.13
2019-03-30T02:08:32.840Z,12.47
2019-03-30T02:11:00.955Z,12.13
2019-03-30T02:13:29.065Z,9.73
2019-03-30T02:15:57.213Z,8.90
2019-03-30T02:18:25.326Z,11.60
2019-03-30T02:20:53.557Z,10.40
2019-03-30T02:23:21.830Z,10.67
2019-03-30T02:25:50.037Z,9.30
2019-03-30T02:28:18.159Z,10.83
2019-03-30T02:30:46.698Z,11.13
2019-03-30T02:33:14.882Z,11.23
2019-03-30T02:35:43.073Z,12.00
2019-03-30T02:38:11.183Z,9.93
2019-03-30T02:40:39.383Z,11.03
2019-03-30T02:43:07.496Z,13.53
2019-03-30T02:45:35.805Z,11.40
2019-03-30T02:48:03.991Z,11.03
2019-03-30T02:50:48.640Z,12.40
2019-03-30T02:53:01.960Z,12.50
2019-03-30T02:55:30.094Z,10.57
2019-03-30T02:57:58.286Z,11.20
2019-03-30T03:00:26.697Z,11.50
2019-03-30T03:02:54.831Z,13.00
2019-03-30T03:05:23.019Z,11.43
2019-03-30T03:07:51.144Z,11.13
2019-03-30T03:10:19.325Z,11.37
2019-03-30T03:12:47.515Z,13.97
2019-03-30T03:15:16.150Z,10.70
2019-03-30T03:17:44.272Z,11.73
2019-03-30T03:20:12.458Z,11.97
2019-03-30T03:22:40.569Z,9.93
2019-03-30T03:25:08.848Z,8.97
2019-03-30T03:27:37.042Z,10.97
2019-03-30T03:30:06.146Z,11.87
2019-03-30T03:32:34.297Z,11.40
2019-03-30T03:35:02.487Z,10.47
2019-03-30T03:37:44.413Z,12.33
2019-03-30T03:40:00.596Z,10.80
2019-03-30T03:42:28.702Z,12.03
2019-03-30T03:44:56.845Z,10.47
2019-03-30T03:47:24.952Z,11.23
2019-03-30T03:49:53.088Z,12.07
2019-03-30T03:52:21.260Z,10.13
2019-03-30T03:54:49.380Z,11.93
2019-03-30T03:57:18.692Z,10.67
2019-03-30T03:59:48.670Z,10.67
2019-03-30T04:02:16.975Z,12.30
2019-03-30T04:04:47.685Z,9.93
2019-03-30T04:07:19.664Z,11.33
2019-03-30T04:09:48.900Z,10.77
2019-03-30T04:12:18.114Z,12.47
2019-03-30T04:14:48.025Z,10.43
2019-03-30T04:17:16.152Z,11.70
2019-03-30T04:19:44.741Z,10.93
2019-03-30T04:22:12.879Z,11.13
2019-03-30T04:24:41.062Z,12.10
2019-03-30T04:27:09.255Z,10.07
2019-03-30T04:29:37.360Z,10.97
2019-03-30T04:32:05.492Z,13.33
2019-03-30T04:34:33.604Z,11.60
2019-03-30T04:37:02.149Z,11.87
2019-03-30T04:39:30.356Z,11.47
2019-03-30T04:41:58.469Z,11.83
2019-03-30T04:44:26.616Z,14.23
2019-03-30T04:46:54.724Z,12.80
2019-03-30T04:49:22.867Z,12.33
2019-03-30T04:51:57.552Z,11.33
2019-03-30T04:54:20.835Z,12.77
2019-03-30T04:56:48.946Z,11.83
2019-03-30T04:59:17.081Z,14.13
2019-03-30T05:01:45.191Z,12.73
2019-03-30T05:04:13.335Z,17.70
2019-03-30T05:06:41.445Z,13.70
2019-03-30T05:09:09.580Z,13.37
2019-03-30T05:11:37.696Z,11.50
2019-03-30T05:14:05.825Z,13.27
2019-03-30T05:16:36.710Z,11.27
2019-03-30T05:19:04.833Z,13.33
2019-03-30T05:21:32.944Z,12.03
2019-03-30T05:24:01.056Z,13.47
2019-03-30T05:26:29.200Z,12.23
2019-03-30T05:28:57.317Z,13.73
2019-03-30T05:31:25.448Z,11.50
2019-03-30T05:33:53.555Z,12.53
2019-03-30T05:36:21.706Z,13.27
2019-03-30T05:38:49.928Z,13.27
2019-03-30T05:41:18.052Z,17.47
2019-03-30T05:43:47.035Z,14.87
2019-03-30T05:46:15.178Z,14.57
2019-03-30T05:48:43.362Z,14.97
2019-03-30T05:51:11.497Z,14.17
2019-03-30T05:53:39.599Z,12.77
2019-03-30T05:56:07.757Z,11.00
2019-03-30T05:58:36.151Z,14.53
2019-03-30T06:01:04.272Z,11.83
2019-03-30T06:03:32.701Z,13.03
2019-03-30T06:06:20.274Z,12.43
2019-03-30T06:08:48.384Z,11.23
2019-03-30T06:11:16.488Z,11.97
2019-03-30T06:13:44.718Z,14.63
2019-03-30T06:16:12.815Z,13.90
2019-03-30T06:18:40.953Z,13.57
2019-03-30T06:21:09.064Z,12.60
2019-03-30T06:23:37.282Z,13.77
2019-03-30T06:26:05.400Z,11.70
2019-03-30T06:28:33.530Z,12.77
2019-03-30T06:31:01.652Z,13.13
2019-03-30T06:33:29.815Z,12.77
2019-03-30T06:35:57.925Z,15.07
2019-03-30T06:38:26.380Z,13.93
2019-03-30T06:40:54.495Z,12.83
2019-03-30T06:43:22.620Z,12.40
2019-03-30T06:45:53.858Z,10.77
2019-03-30T06:48:21.995Z,10.67
2019-03-30T06:50:50.556Z,11.07
2019-03-30T06:53:18.661Z,11.13
2019-03-30T06:55:46.784Z,12.33
2019-03-30T06:58:14.907Z,11.57
2019-03-30T07:00:43.038Z,12.40
2019-03-30T07:03:11.143Z,13.53
2019-03-30T07:05:39.704Z,14.10
2019-03-30T07:08:09.377Z,11.90
2019-03-30T07:10:39.042Z,9.67
2019-03-30T07:13:07.369Z,12.37
2019-03-30T07:15:37.029Z,13.07
2019-03-30T07:18:05.156Z,10.43
2019-03-30T07:20:33.656Z,11.43
2019-03-30T07:23:11.712Z,12.83
2019-03-30T07:25:31.695Z,10.93
2019-03-30T07:27:59.804Z,13.27
2019-03-30T07:30:27.930Z,12.83
2019-03-30T07:32:56.112Z,10.90
2019-03-30T07:35:24.211Z,9.27
2019-03-30T07:37:52.341Z,10.63
2019-03-30T07:40:20.850Z,9.73
2019-03-30T07:42:48.986Z,10.60
2019-03-30T07:45:17.160Z,10.00
2019-03-30T07:47:45.301Z,8.90
2019-03-30T07:50:13.472Z,10.63
2019-03-30T07:52:42.029Z,11.30
2019-03-30T07:55:10.501Z,9.77
2019-03-30T07:57:38.629Z,8.60
2019-03-30T08:00:07.012Z,10.37
2019-03-30T08:02:35.139Z,11.37
2019-03-30T08:05:04.020Z,9.30
2019-03-30T08:07:32.240Z,9.83
2019-03-30T08:10:00.493Z,11.07
2019-03-30T08:12:28.726Z,8.77
2019-03-30T08:14:56.869Z,9.00
2019-03-30T08:17:24.992Z,11.43
2019-03-30T08:19:53.119Z,11.97
2019-03-30T08:22:21.237Z,11.27
2019-03-30T08:24:49.364Z,11.03
2019-03-30T08:27:17.486Z,12.63
2019-03-30T08:29:45.620Z,9.77
2019-03-30T08:32:13.733Z,8.70
2019-03-30T08:34:41.860Z,12.70
2019-03-30T08:37:09.969Z,14.23
2019-03-30T08:39:38.096Z,11.87
2019-03-30T08:42:06.504Z,9.20
2019-03-30T08:44:34.721Z,9.37
2019-03-30T08:47:02.893Z,10.80
2019-03-30T08:49:31.030Z,10.23
2019-03-30T08:51:59.216Z,12.23
2019-03-30T08:54:27.341Z,8.53
2019-03-30T08:56:55.453Z,10.27
2019-03-30T08:59:23.837Z,13.97
2019-03-30T09:01:52.036Z,10.40
2019-03-30T09:04:20.148Z,12.40
2019-03-30T09:06:48.292Z,9.27
2019-03-30T09:09:18.160Z,10.20
2019-03-30T09:11:46.373Z,11.37
2019-03-30T09:14:14.487Z,11.40
2019-03-30T09:16:42.657Z,10.93
2019-03-30T09:19:10.779Z,8.43
2019-03-30T09:21:38.982Z,11.07
2019-03-30T09:24:09.844Z,10.70
2019-03-30T09:26:36.941Z,8.30
2019-03-30T09:29:07.668Z,8.73
2019-03-30T09:31:35.927Z,11.90
2019-03-30T09:34:04.161Z,11.00
2019-03-30T09:36:32.426Z,10.10
2019-03-30T09:39:00.633Z,9.07
2019-03-30T09:41:28.771Z,12.93
2019-03-30T09:43:56.876Z,12.13
2019-03-30T09:46:24.995Z,7.27
2019-03-30T09:48:53.123Z,10.10
2019-03-30T09:51:21.240Z,9.20
2019-03-30T09:53:49.447Z,10.67
2019-03-30T09:56:17.628Z,8.40
2019-03-30T09:58:45.793Z,10.03
2019-03-30T10:01:13.960Z,11.00
2019-03-30T10:03:42.093Z,10.13
2019-03-30T10:06:10.203Z,10.30
2019-03-30T10:08:38.332Z,11.50
2019-03-30T10:11:06.441Z,8.87
2019-03-30T10:13:34.580Z,8.77
2019-03-30T10:16:02.679Z,7.73
2019-03-30T10:18:30.837Z,9.37
2019-03-30T10:20:59.008Z,10.57
2019-03-30T10:23:27.144Z,7.73
2019-03-30T10:25:55.252Z,8.33
2019-03-30T10:28:23.370Z,11.13
2019-03-30T10:30:51.518Z,10.07
2019-03-30T10:33:19.627Z,10.43
2019-03-30T10:35:47.756Z,11.20
2019-03-30T10:38:15.868Z,12.50
2019-03-30T10:40:43.997Z,8.80
2019-03-30T10:43:12.235Z,9.27
2019-03-30T10:45:40.373Z,8.37
2019-03-30T10:48:08.495Z,10.47
2019-03-30T10:50:36.602Z,10.07
2019-03-30T10:53:04.728Z,9.17
2019-03-30T10:55:33.196Z,8.43
2019-03-30T10:58:01.300Z,7.23
2019-03-30T11:00:37.172Z,10.53
2019-03-30T11:03:07.005Z,8.07
2019-03-30T11:05:35.329Z,11.80
2019-03-30T11:08:03.469Z,13.00
2019-03-30T11:10:31.585Z,8.43
2019-03-30T11:12:59.701Z,11.40
2019-03-30T11:15:27.844Z,10.07
2019-03-30T11:17:56.269Z,9.73
2019-03-30T11:20:24.379Z,10.23
2019-03-30T11:22:52.575Z,8.43
2019-03-30T11:25:20.699Z,10.60
2019-03-30T11:27:48.858Z,9.80
2019-03-30T11:30:17.065Z,9.17
2019-03-30T11:32:45.184Z,10.17
2019-03-30T11:35:13.289Z,10.93
2019-03-30T11:37:52.806Z,11.73
2019-03-30T11:40:21.025Z,11.90
2019-03-30T11:42:49.172Z,9.37
2019-03-30T11:45:17.381Z,9.60
2019-03-30T11:47:45.484Z,12.70
2019-03-30T11:50:14.292Z,12.93
2019-03-30T11:52:42.437Z,9.17
2019-03-30T11:55:21.016Z,12.93
2019-03-30T11:57:40.499Z,13.07
2019-03-30T12:00:09.022Z,8.97
2019-03-30T12:02:37.187Z,9.47
2019-03-30T12:05:06.412Z,9.57
2019-03-30T12:07:34.565Z,10.60
2019-03-30T12:10:03.045Z,8.30
2019-03-30T12:12:31.139Z,10.03
2019-03-30T12:14:59.280Z,13.30
2019-03-30T12:17:27.383Z,9.97
2019-03-30T12:19:55.497Z,10.57
2019-03-30T12:22:23.665Z,9.07
2019-03-30T12:24:51.781Z,10.53
2019-03-30T12:27:19.919Z,10.60
2019-03-30T12:29:51.210Z,11.03
2019-03-30T12:32:19.304Z,8.53
2019-03-30T12:34:47.429Z,10.23
2019-03-30T12:37:15.579Z,11.83
2019-03-30T12:39:43.700Z,12.30
2019-03-30T12:42:11.796Z,10.97
2019-03-30T12:44:39.923Z,8.80
2019-03-30T12:47:10.348Z,10.37
2019-03-30T12:49:37.955Z,11.13
2019-03-30T12:52:06.182Z,8.57
2019-03-30T12:54:34.352Z,8.93
2019-03-30T12:57:02.471Z,9.57
2019-03-30T12:59:30.607Z,9.90
2019-03-30T13:02:00.514Z,13.30
2019-03-30T13:04:28.631Z,9.40
2019-03-30T13:06:56.840Z,11.87
2019-03-30T13:09:25.016Z,9.67
2019-03-30T13:11:53.131Z,9.13
2019-03-30T13:14:21.340Z,14.97
2019-03-30T13:16:49.581Z,10.57
2019-03-30T13:19:18.114Z,12.03
2019-03-30T13:21:52.654Z,10.53
2019-03-30T13:24:16.185Z,10.00
2019-03-30T13:26:44.288Z,10.03
2019-03-30T13:29:12.425Z,10.20
2019-03-30T13:31:40.542Z,12.10
2019-03-30T13:34:08.642Z,9.90
2019-03-30T13:36:38.552Z,10.83
2019-03-30T13:39:07.375Z,11.63
2019-03-30T13:41:35.871Z,11.00
2019-03-30T13:44:04.299Z,12.63
2019-03-30T13:46:32.558Z,14.30
2019-03-30T13:49:00.683Z,12.47
2019-03-30T13:51:28.918Z,11.30
2019-03-30T13:53:57.022Z,11.07
2019-03-30T13:56:25.126Z,13.83
2019-03-30T13:58:53.463Z,11.43
2019-03-30T14:01:21.650Z,11.27
2019-03-30T14:03:49.755Z,10.30
2019-03-30T14:06:18.656Z,12.90
2019-03-30T14:08:46.902Z,9.47
2019-03-30T14:11:15.013Z,9.50
2019-03-30T14:13:43.158Z,15.33
2019-03-30T14:16:11.324Z,9.07
2019-03-30T14:18:39.435Z,8.80
2019-03-30T14:21:07.577Z,11.10
2019-03-30T14:23:35.688Z,10.23
2019-03-30T14:26:03.788Z,9.63
2019-03-30T14:28:32.028Z,9.87
2019-03-30T14:31:00.215Z,10.43
2019-03-30T14:33:28.340Z,10.90
2019-03-30T14:35:56.472Z,9.07
2019-03-30T14:38:24.661Z,9.47
2019-03-30T14:40:52.799Z,10.47
2019-03-30T14:43:20.967Z,9.53
2019-03-30T14:45:49.086Z,11.03
2019-03-30T14:48:17.202Z,11.40
2019-03-30T14:50:45.340Z,10.33
2019-03-30T14:53:13.477Z,11.03
2019-03-30T14:55:41.803Z,11.57
2019-03-30T14:58:10.032Z,16.60
2019-03-30T15:00:38.623Z,12.43
2019-03-30T15:03:06.972Z,10.63
2019-03-30T15:05:35.105Z,11.47
2019-03-30T15:08:03.217Z,9.90
2019-03-30T15:10:31.328Z,18.87
2019-03-30T15:12:59.459Z,10.00
2019-03-30T15:15:27.578Z,11.67
2019-03-30T15:17:55.996Z,9.47
2019-03-30T15:20:27.300Z,12.73
2019-03-30T15:22:55.453Z,12.73
2019-03-30T15:25:23.605Z,11.10
2019-03-30T15:27:51.860Z,11.70
2019-03-30T15:30:20.044Z,11.80
2019-03-30T15:32:48.335Z,13.30
2019-03-30T15:35:16.460Z,11.50
2019-03-30T15:37:44.636Z,11.27
2019-03-30T15:40:13.162Z,11.80
2019-03-30T15:42:41.847Z,10.63
2019-03-30T15:45:10.916Z,10.37
2019-03-30T15:47:39.095Z,12.20
2019-03-30T15:50:07.580Z,11.67
2019-03-30T15:52:35.718Z,10.77
2019-03-30T15:55:07.033Z,9.70
2019-03-30T15:57:35.809Z,11.00
2019-03-30T16:00:07.874Z,9.77
2019-03-30T16:02:35.983Z,11.60
2019-03-30T16:05:04.947Z,10.60
2019-03-30T16:07:33.129Z,11.67
2019-03-30T16:10:01.313Z,11.57
2019-03-30T16:12:29.441Z,11.00
2019-03-30T16:14:57.584Z,14.70
2019-03-30T16:17:25.695Z,10.83
2019-03-30T16:19:53.809Z,11.17
2019-03-30T16:22:21.987Z,13.43
2019-03-30T16:24:51.868Z,10.97
2019-03-30T16:27:28.878Z,10.57
2019-03-30T16:29:49.835Z,13.93
2019-03-30T16:32:17.945Z,11.10
2019-03-30T16:34:47.704Z,9.43
2019-03-30T16:37:15.839Z,14.00
2019-03-30T16:39:43.954Z,10.13
2019-03-30T16:42:12.066Z,11.07
2019-03-30T16:44:40.282Z,10.80
2019-03-30T16:47:08.474Z,10.97
2019-03-30T16:49:39.436Z,11.57
2019-03-30T16:52:07.577Z,13.37
2019-03-30T16:54:35.683Z,11.17
2019-03-30T16:57:03.897Z,12.43
2019-03-30T16:59:32.056Z,10.30
2019-03-30T17:02:00.226Z,9.77
2019-03-30T17:04:29.706Z,12.47
2019-03-30T17:06:58.024Z,10.00
2019-03-30T17:09:26.435Z,9.93
2019-03-30T17:11:54.578Z,12.80
2019-03-30T17:14:22.720Z,13.33
2019-03-30T17:16:50.833Z,11.33
2019-03-30T17:19:18.935Z,11.20
2019-03-30T17:21:47.168Z,10.67
2019-03-30T17:24:15.282Z,10.97
2019-03-30T17:26:43.392Z,13.50
2019-03-30T17:29:11.532Z,11.33
2019-03-30T17:31:40.005Z,13.47
2019-03-30T17:34:08.115Z,10.37
2019-03-30T17:36:36.288Z,14.43
2019-03-30T17:39:05.946Z,16.50
2019-03-30T17:41:34.059Z,12.50
2019-03-30T17:44:02.186Z,15.13
2019-03-30T17:46:30.370Z,12.67
2019-03-30T17:48:58.479Z,16.80
2019-03-30T17:51:26.619Z,10.87
2019-03-30T17:53:54.873Z,13.20
2019-03-30T17:56:22.980Z,13.87
2019-03-30T17:58:51.130Z,12.33
2019-03-30T18:01:19.248Z,17.67
2019-03-30T18:03:47.357Z,13.00
2019-03-30T18:06:15.560Z,13.13
2019-03-30T18:08:43.674Z,13.20
2019-03-30T18:11:11.784Z,13.10
2019-03-30T18:13:39.925Z,14.50
2019-03-30T18:16:08.027Z,14.07
2019-03-30T18:18:36.221Z,14.37
2019-03-30T18:21:04.358Z,15.50
2019-03-30T18:23:32.469Z,12.90
2019-03-30T18:26:00.581Z,14.07
2019-03-30T18:28:28.720Z,15.43
2019-03-30T18:30:57.249Z,15.17
2019-03-30T18:33:25.855Z,14.27
2019-03-30T18:35:54.102Z,15.53
2019-03-30T18:38:22.493Z,15.47
2019-03-30T18:40:51.181Z,14.37
2019-03-30T18:43:19.655Z,14.47
2019-03-30T18:45:47.905Z,14.67
2019-03-30T18:48:16.827Z,12.67
2019-03-30T18:50:45.462Z,21.10
2019-03-30T18:53:14.621Z,15.83
2019-03-30T18:55:42.840Z,15.90
2019-03-30T18:58:11.003Z,19.07
2019-03-30T19:00:39.131Z,14.97
2019-03-30T19:03:07.271Z,16.13
2019-03-30T19:05:35.559Z,15.90
2019-03-30T19:08:03.973Z,18.37
2019-03-30T19:10:32.167Z,16.67
2019-03-30T19:13:00.291Z,20.77
2019-03-30T19:15:28.468Z,18.57
2019-03-30T19:17:56.664Z,16.97
2019-03-30T19:20:24.885Z,20.27
2019-03-30T19:22:53.025Z,19.20
2019-03-30T19:25:21.172Z,19.20
2019-03-30T19:27:49.345Z,20.60
2019-03-30T19:30:18.676Z,17.47
2019-03-30T19:32:46.784Z,21.27
2019-03-30T19:35:14.968Z,22.90
2019-03-30T19:37:46.625Z,18.23
2019-03-30T19:40:14.781Z,19.60
2019-03-30T19:42:42.975Z,25.17
2019-03-30T19:45:15.661Z,18.67
2019-03-30T19:47:43.806Z,19.20
2019-03-30T19:50:11.998Z,16.90
2019-03-30T19:52:43.127Z,19.47
2019-03-30T19:55:11.274Z,22.20
2019-03-30T19:57:39.403Z,18.00
2019-03-30T20:00:09.047Z,16.27
2019-03-30T20:02:37.257Z,17.33
2019-03-30T20:05:09.643Z,24.63
2019-03-30T20:07:37.880Z,17.53
2019-03-30T20:10:06.267Z,18.93
2019-03-30T20:12:34.380Z,18.70
2019-03-30T20:15:02.526Z,17.83
2019-03-30T20:17:30.632Z,18.40
2019-03-30T20:19:58.845Z,17.97
2019-03-30T20:22:26.961Z,21.27
2019-03-30T20:24:55.087Z,19.67
2019-03-30T20:27:23.207Z,18.70
2019-03-30T20:29:51.340Z,21.23
2019-03-30T20:32:19.460Z,18.03
2019-03-30T20:34:47.853Z,22.53
2019-03-30T20:37:15.963Z,21.17
2019-03-30T20:39:44.106Z,19.10
2019-03-30T20:42:12.216Z,21.50
2019-03-30T20:44:40.350Z,19.83
2019-03-30T20:47:08.479Z,18.30
2019-03-30T20:49:36.593Z,19.17
2019-03-30T20:52:04.719Z,18.10
2019-03-30T20:54:32.828Z,20.43
2019-03-30T20:57:01.284Z,21.93
2019-03-30T20:59:39.751Z,19.00
2019-03-30T21:01:59.260Z,20.67
2019-03-30T21:04:27.366Z,20.63
2019-03-30T21:06:55.495Z,19.93
2019-03-30T21:09:23.607Z,19.87
2019-03-30T21:11:51.749Z,18.53
2019-03-30T21:14:19.939Z,20.33
2019-03-30T21:16:48.072Z,18.17
2019-03-30T21:19:16.179Z,17.10
2019-03-30T21:21:44.472Z,19.23
2019-03-30T21:24:12.604Z,16.63
2019-03-30T21:26:40.708Z,16.63
2019-03-30T21:29:08.845Z,19.00
2019-03-30T21:31:36.951Z,19.03
2019-03-30T21:34:05.086Z,15.93
2019-03-30T21:36:33.194Z,16.30
2019-03-30T21:39:01.394Z,18.33
2019-03-30T21:41:29.496Z,18.03
2019-03-30T21:43:57.633Z,20.30
2019-03-30T21:46:25.815Z,15.03
2019-03-30T21:48:53.948Z,20.37
2019-03-30T21:51:22.064Z,16.53
2019-03-30T21:53:50.196Z,17.60
2019-03-30T21:56:18.307Z,16.80
2019-03-30T21:58:46.419Z,19.77
2019-03-30T22:01:14.554Z,17.90
2019-03-30T22:03:42.661Z,19.03
2019-03-30T22:06:10.857Z,16.20
2019-03-30T22:08:40.615Z,18.93
2019-03-30T22:11:08.745Z,19.47
2019-03-30T22:13:36.929Z,17.70
2019-03-30T22:16:05.056Z,18.27
2019-03-30T22:18:33.173Z,18.13
2019-03-30T22:21:01.307Z,17.93
2019-03-30T22:23:29.426Z,17.77
2019-03-30T22:25:57.573Z,20.23
2019-03-30T22:28:26.048Z,18.43
2019-03-30T22:30:54.181Z,18.00
2019-03-30T22:33:22.297Z,16.93
2019-03-30T22:35:52.134Z,20.73
2019-03-30T22:38:20.271Z,18.43
2019-03-30T22:40:48.373Z,18.23
2019-03-30T22:43:16.511Z,17.00
2019-03-30T22:45:44.916Z,16.27
2019-03-30T22:48:13.063Z,18.00
2019-03-30T22:50:41.242Z,19.67
2019-03-30T22:53:09.487Z,23.10
2019-03-30T22:55:37.596Z,19.07
2019-03-30T22:58:05.740Z,22.03
2019-03-30T23:00:46.488Z,21.57
2019-03-30T23:03:14.756Z,26.67
2019-03-30T23:05:42.917Z,29.73
2019-03-30T23:08:11.104Z,27.63
2019-03-30T23:10:39.305Z,32.33
2019-03-30T23:13:07.407Z,24.40
2019-03-30T23:15:36.932Z,20.07
2019-03-30T23:18:05.136Z,17.37
2019-03-30T23:20:33.397Z,22.33
2019-03-30T23:23:01.517Z,20.70
2019-03-30T23:25:30.010Z,19.73
2019-03-30T23:27:58.127Z,18.10
2019-03-30T23:30:26.251Z,16.97
2019-03-30T23:32:54.370Z,17.93
2019-03-30T23:35:22.496Z,16.83
2019-03-30T23:37:51.075Z,19.37
2019-03-30T23:40:19.276Z,17.47
2019-03-30T23:42:47.390Z,20.23
2019-03-30T23:45:15.599Z,17.30
2019-03-30T23:47:43.713Z,19.10
2019-03-30T23:50:11.939Z,21.27
2019-03-30T23:52:40.069Z,17.73
2019-03-30T23:55:08.368Z,17.97
2019-03-30T23:57:36.615Z,22.40
